createdAt,value
2022-09-28T00:00:39.744Z,9.27
2022-09-28T00:02:43.147Z,9.25
2022-09-28T00:04:46.574Z,9.01
2022-09-28T00:06:50.033Z,8.98
2022-09-28T00:08:53.681Z,9.21
2022-09-28T00:10:59.231Z,9.25
2022-09-28T00:13:02.725Z,9.33
2022-09-28T00:15:06.573Z,9.38
2022-09-28T00:17:09.963Z,9.24
2022-09-28T00:19:13.735Z,9.33
2022-09-28T00:21:19.013Z,9.35
2022-09-28T00:23:22.315Z,9.33
2022-09-28T00:25:25.569Z,9.40
2022-09-28T00:27:30.321Z,9.42
2022-09-28T00:29:35.281Z,9.41
2022-09-28T00:31:38.766Z,9.40
2022-09-28T00:33:42.096Z,9.51
2022-09-28T00:35:46.161Z,9.47
2022-09-28T00:37:50.868Z,9.43
2022-09-28T00:39:54.225Z,9.34
2022-09-28T00:41:57.537Z,9.40
2022-09-28T00:44:43.611Z,9.37
2022-09-28T00:46:48.249Z,9.42
2022-09-28T00:48:56.057Z,9.43
2022-09-28T00:51:02.460Z,9.38
2022-09-28T00:53:12.633Z,9.38
2022-09-28T00:55:19.178Z,9.41
2022-09-28T00:57:23.989Z,9.35
2022-09-28T00:59:27.499Z,9.43
2022-09-28T01:01:31.597Z,9.35
2022-09-28T01:03:36.881Z,9.40
2022-09-28T01:05:41.446Z,9.44
2022-09-28T01:07:47.409Z,9.41
2022-09-28T01:09:51.462Z,9.37
2022-09-28T01:11:55.144Z,9.32
2022-09-28T01:13:59.409Z,9.38
2022-09-28T01:16:12.812Z,9.35
2022-09-28T01:18:23.285Z,9.41
2022-09-28T01:20:35.382Z,9.25
2022-09-28T01:23:09.304Z,9.27
2022-09-28T01:25:17.701Z,9.31
2022-09-28T01:27:29.159Z,9.31
2022-09-28T01:29:44.822Z,9.38
2022-09-28T01:31:53.975Z,9.43
2022-09-28T01:34:02.082Z,9.48
2022-09-28T01:36:11.158Z,9.39
2022-09-28T01:38:20.424Z,9.49
2022-09-28T01:40:27.420Z,9.45
2022-09-28T01:42:35.458Z,9.32
2022-09-28T01:44:46.288Z,9.38
2022-09-28T01:46:51.573Z,9.47
2022-09-28T01:48:58.247Z,9.56
2022-09-28T01:51:07.350Z,9.54
2022-09-28T01:53:16.778Z,9.43
2022-09-28T01:55:27.447Z,9.43
2022-09-28T01:57:38.674Z,9.47
2022-09-28T01:59:47.497Z,9.43
2022-09-28T02:01:54.810Z,9.27
2022-09-28T02:04:03.659Z,9.38
2022-09-28T02:06:13.830Z,9.18
2022-09-28T02:08:25.470Z,9.42
2022-09-28T02:10:36.422Z,9.39
2022-09-28T02:12:45.566Z,9.46
2022-09-28T02:14:53.704Z,9.51
2022-09-28T02:16:58.661Z,9.44
2022-09-28T02:19:06.456Z,9.51
2022-09-28T02:21:16.869Z,9.51
2022-09-28T02:23:22.867Z,9.53
2022-09-28T02:25:37.946Z,9.56
2022-09-28T02:27:49.818Z,9.58
2022-09-28T02:29:53.396Z,9.62
2022-09-28T02:31:56.833Z,9.58
2022-09-28T02:34:00.307Z,9.50
2022-09-28T02:36:04.554Z,9.46
2022-09-28T02:38:14.089Z,9.50
2022-09-28T02:40:21.317Z,9.56
2022-09-28T02:42:30.370Z,9.54
2022-09-28T02:44:49.613Z,9.49
2022-09-28T02:47:01.110Z,9.52
2022-09-28T02:49:23.217Z,9.51
2022-09-28T02:51:33.907Z,9.53
2022-09-28T02:53:55.038Z,9.44
2022-09-28T02:56:19.271Z,9.55
2022-09-28T02:58:31.961Z,9.56
2022-09-28T03:00:45.198Z,9.22
2022-09-28T03:03:00.792Z,9.40
2022-09-28T03:05:15.615Z,9.38
2022-09-28T03:07:26.690Z,9.25
2022-09-28T03:09:36.021Z,9.34
2022-09-28T03:11:44.433Z,9.42
2022-09-28T03:13:48.738Z,9.41
2022-09-28T03:16:06.604Z,9.40
2022-09-28T03:18:10.164Z,9.43
2022-09-28T03:20:13.936Z,9.41
2022-09-28T03:22:17.394Z,9.23
2022-09-28T03:24:20.755Z,9.40
2022-09-28T03:26:24.534Z,9.53
2022-09-28T03:28:28.185Z,9.55
2022-09-28T03:30:31.852Z,9.65
2022-09-28T03:32:37.039Z,9.62
2022-09-28T03:34:40.447Z,9.62
2022-09-28T03:36:44.183Z,9.60
2022-09-28T03:38:47.542Z,9.64
2022-09-28T03:40:55.030Z,9.57
2022-09-28T03:43:01.363Z,9.64
2022-09-28T03:45:05.660Z,9.65
2022-09-28T03:47:09.524Z,9.58
2022-09-28T03:49:14.852Z,9.45
2022-09-28T03:51:18.433Z,9.53
2022-09-28T03:53:22.038Z,9.54
2022-09-28T03:55:25.551Z,9.46
2022-09-28T03:57:28.969Z,9.48
2022-09-28T03:59:32.364Z,9.57
2022-09-28T04:01:35.961Z,9.20
2022-09-28T04:03:39.624Z,9.58
2022-09-28T04:05:50.962Z,9.63
2022-09-28T04:07:56.081Z,9.60
2022-09-28T04:09:59.638Z,9.47
2022-09-28T04:12:04.589Z,9.47
2022-09-28T04:14:10.150Z,9.32
2022-09-28T04:16:13.462Z,9.42
2022-09-28T04:18:20.358Z,9.44
2022-09-28T04:20:45.362Z,9.48
2022-09-28T04:22:51.194Z,9.48
2022-09-28T04:24:54.871Z,9.48
2022-09-28T04:27:18.353Z,9.53
2022-09-28T04:29:20.975Z,9.54
2022-09-28T04:31:29.904Z,9.56
2022-09-28T04:33:33.511Z,9.44
2022-09-28T04:35:37.018Z,9.43
2022-09-28T04:37:40.380Z,9.38
2022-09-28T04:39:48.357Z,9.49
2022-09-28T04:41:54.941Z,9.48
2022-09-28T04:43:58.424Z,9.54
2022-09-28T04:46:03.453Z,9.47
2022-09-28T04:48:14.895Z,9.46
2022-09-28T04:50:57.024Z,9.48
2022-09-28T04:53:01.744Z,9.35
2022-09-28T04:55:07.528Z,9.40
2022-09-28T04:57:11.418Z,9.46
2022-09-28T04:59:15.405Z,9.52
2022-09-28T05:01:23.361Z,9.53
2022-09-28T05:03:36.166Z,9.44
2022-09-28T05:06:00.360Z,9.35
2022-09-28T05:08:17.505Z,9.28
2022-09-28T05:10:23.454Z,9.35
2022-09-28T05:12:26.799Z,9.38
2022-09-28T05:14:30.215Z,9.45
2022-09-28T05:16:35.123Z,9.43
2022-09-28T05:19:14.040Z,9.28
2022-09-28T05:21:20.032Z,9.28
2022-09-28T05:23:23.339Z,9.36
2022-09-28T05:25:32.743Z,9.34
2022-09-28T05:27:46.344Z,9.33
2022-09-28T05:30:14.450Z,9.35
2022-09-28T05:32:41.171Z,9.41
2022-09-28T05:35:08.371Z,9.24
2022-09-28T05:37:18.228Z,9.29
2022-09-28T05:39:23.147Z,9.44
2022-09-28T05:41:27.846Z,9.51
2022-09-28T05:43:31.565Z,9.38
2022-09-28T05:45:34.984Z,9.43
2022-09-28T05:47:41.343Z,9.42
2022-09-28T05:49:45.192Z,9.40
2022-09-28T05:51:49.169Z,9.46
2022-09-28T05:53:55.369Z,9.36
2022-09-28T05:55:59.886Z,9.49
2022-09-28T05:58:06.992Z,9.53
2022-09-28T06:00:11.725Z,9.51
2022-09-28T06:02:22.304Z,9.49
2022-09-28T06:04:25.784Z,9.55
2022-09-28T06:06:29.122Z,9.56
2022-09-28T06:08:34.051Z,10.03
2022-09-28T06:10:51.024Z,10.65
2022-09-28T06:12:54.685Z,10.34
2022-09-28T06:15:01.186Z,10.17
2022-09-28T06:17:04.718Z,10.11
2022-09-28T06:19:09.098Z,9.98
2022-09-28T06:21:39.520Z,9.82
2022-09-28T06:23:48.848Z,9.86
2022-09-28T06:25:54.588Z,9.71
2022-09-28T06:27:59.530Z,9.69
2022-09-28T06:30:04.946Z,9.55
2022-09-28T06:32:08.452Z,9.63
2022-09-28T06:34:14.305Z,9.60
2022-09-28T06:36:18.555Z,9.50
2022-09-28T06:38:21.924Z,9.47
2022-09-28T06:40:27.712Z,9.52
2022-09-28T06:42:31.413Z,9.43
2022-09-28T06:45:01.268Z,9.38
2022-09-28T06:47:22.113Z,9.46
2022-09-28T06:49:35.975Z,9.47
2022-09-28T06:52:17.306Z,9.39
2022-09-28T06:54:41.610Z,9.46
2022-09-28T06:56:58.273Z,9.54
2022-09-28T06:59:01.651Z,9.41
2022-09-28T07:01:05.769Z,9.45
2022-09-28T07:03:23.906Z,9.45
2022-09-28T07:05:43.574Z,9.34
2022-09-28T07:08:14.088Z,9.18
2022-09-28T07:10:36.334Z,9.23
2022-09-28T07:13:02.615Z,9.17
2022-09-28T07:15:26.976Z,9.21
2022-09-28T07:17:31.692Z,9.18
2022-09-28T07:19:38.767Z,9.38
2022-09-28T07:21:42.159Z,9.46
2022-09-28T07:23:53.194Z,9.36
2022-09-28T07:26:07.157Z,9.24
2022-09-28T07:28:34.083Z,9.33
2022-09-28T07:31:06.896Z,9.48
2022-09-28T07:33:42.175Z,9.52
2022-09-28T07:35:55.707Z,9.56
2022-09-28T07:38:07.808Z,9.56
2022-09-28T07:40:28.784Z,9.33
2022-09-28T07:42:32.679Z,9.63
2022-09-28T07:44:36.607Z,9.69
2022-09-28T07:46:41.004Z,9.79
2022-09-28T07:48:52.056Z,9.83
2022-09-28T07:51:11.483Z,9.85
2022-09-28T07:53:38.156Z,9.81
2022-09-28T07:56:05.660Z,9.93
2022-09-28T07:58:14.015Z,10.00
2022-09-28T08:00:24.668Z,9.97
2022-09-28T08:02:28.226Z,10.02
2022-09-28T08:04:31.668Z,9.99
2022-09-28T08:06:36.429Z,10.03
2022-09-28T08:08:44.577Z,10.13
2022-09-28T08:10:52.445Z,10.06
2022-09-28T08:13:15.155Z,10.13
2022-09-28T08:15:38.283Z,10.12
2022-09-28T08:18:04.938Z,10.17
2022-09-28T08:20:26.838Z,10.14
2022-09-28T08:22:32.774Z,10.08
2022-09-28T08:24:37.141Z,10.07
2022-09-28T08:26:40.656Z,10.26
2022-09-28T08:28:45.166Z,10.41
2022-09-28T08:31:14.511Z,10.36
2022-09-28T08:33:38.410Z,10.35
2022-09-28T08:36:02.273Z,10.37
2022-09-28T08:38:26.666Z,10.46
2022-09-28T08:40:59.863Z,10.52
2022-09-28T08:43:27.012Z,10.46
2022-09-28T08:45:52.206Z,10.37
2022-09-28T08:48:41.075Z,10.44
2022-09-28T08:51:20.043Z,10.49
2022-09-28T08:53:52.982Z,10.53
2022-09-28T08:56:04.542Z,10.53
2022-09-28T08:58:13.440Z,10.74
2022-09-28T09:00:22.202Z,10.86
2022-09-28T09:02:29.908Z,10.84
2022-09-28T09:04:46.507Z,10.78
2022-09-28T09:07:30.492Z,10.84
2022-09-28T09:09:58.301Z,10.94
2022-09-28T09:12:10.010Z,10.99
2022-09-28T09:14:33.578Z,11.01
2022-09-28T09:16:47.242Z,10.99
2022-09-28T09:19:18.068Z,10.90
2022-09-28T09:21:42.587Z,10.72
2022-09-28T09:23:56.131Z,10.75
2022-09-28T09:26:07.117Z,10.80
2022-09-28T09:28:39.367Z,10.66
2022-09-28T09:30:50.488Z,10.58
2022-09-28T09:33:08.366Z,10.61
2022-09-28T09:35:42.758Z,10.68
2022-09-28T09:38:30.255Z,10.69
2022-09-28T09:41:04.336Z,10.74
2022-09-28T09:44:00.379Z,10.65
2022-09-28T09:46:31.222Z,10.71
2022-09-28T09:49:05.850Z,10.85
2022-09-28T09:51:17.705Z,10.94
2022-09-28T09:53:27.739Z,10.91
2022-09-28T09:55:35.181Z,10.99
2022-09-28T09:58:05.894Z,10.89
2022-09-28T10:00:19.992Z,10.88
2022-09-28T10:02:40.889Z,10.85
2022-09-28T10:05:00.637Z,10.99
2022-09-28T10:07:19.870Z,11.20
2022-09-28T10:09:27.277Z,11.12
2022-09-28T10:11:50.261Z,11.20
2022-09-28T10:13:54.013Z,11.17
2022-09-28T10:16:25.599Z,11.27
2022-09-28T10:18:35.784Z,11.40
2022-09-28T10:20:57.817Z,11.56
2022-09-28T10:23:23.515Z,11.57
2022-09-28T10:25:28.193Z,11.67
2022-09-28T10:27:35.642Z,11.71
2022-09-28T10:29:46.819Z,11.61
2022-09-28T10:31:53.632Z,11.65
2022-09-28T10:34:02.484Z,11.73
2022-09-28T10:36:08.384Z,11.72
2022-09-28T10:38:18.497Z,11.84
2022-09-28T10:40:40.083Z,11.82
2022-09-28T10:42:43.811Z,11.96
2022-09-28T10:44:54.312Z,11.96
2022-09-28T10:47:18.863Z,11.69
2022-09-28T10:49:25.844Z,11.93
2022-09-28T10:51:43.632Z,12.01
2022-09-28T10:54:00.883Z,11.95
2022-09-28T10:56:28.041Z,12.16
2022-09-28T10:58:42.142Z,12.12
2022-09-28T11:00:50.507Z,12.16
2022-09-28T11:02:57.753Z,12.10
2022-09-28T11:05:03.537Z,12.18
2022-09-28T11:07:19.049Z,12.23
2022-09-28T11:09:30.838Z,12.09
2022-09-28T11:11:41.908Z,12.08
2022-09-28T11:13:48.881Z,11.99
2022-09-28T11:15:57.966Z,11.97
2022-09-28T11:18:28.187Z,12.17
2022-09-28T11:20:35.738Z,12.12
2022-09-28T11:22:44.308Z,12.12
2022-09-28T11:24:48.980Z,12.22
2022-09-28T11:26:56.388Z,12.27
2022-09-28T11:29:03.373Z,12.31
2022-09-28T11:31:18.168Z,12.34
2022-09-28T11:33:34.728Z,12.36
2022-09-28T11:36:06.733Z,12.40
2022-09-28T11:38:33.999Z,12.37
2022-09-28T11:41:26.119Z,12.35
2022-09-28T11:43:55.824Z,12.35
2022-09-28T11:46:08.475Z,12.48
2022-09-28T11:48:16.564Z,12.48
2022-09-28T11:50:30.604Z,12.55
2022-09-28T11:52:39.577Z,12.60
2022-09-28T11:54:49.111Z,12.60
2022-09-28T11:56:53.781Z,12.48
2022-09-28T11:59:02.556Z,12.44
2022-09-28T12:01:25.645Z,12.47
2022-09-28T12:03:53.502Z,12.47
2022-09-28T12:06:02.014Z,12.64
2022-09-28T12:08:13.301Z,12.85
2022-09-28T12:10:48.081Z,12.97
2022-09-28T12:13:01.080Z,12.96
2022-09-28T12:15:14.178Z,12.96
2022-09-28T12:17:23.760Z,12.93
2022-09-28T12:19:33.398Z,12.91
2022-09-28T12:21:45.674Z,12.78
2022-09-28T12:23:50.419Z,12.86
2022-09-28T12:25:59.460Z,12.87
2022-09-28T12:28:07.460Z,12.93
2022-09-28T12:30:16.128Z,12.90
2022-09-28T12:32:28.531Z,12.92
2022-09-28T12:34:31.973Z,12.98
2022-09-28T12:36:50.498Z,12.95
2022-09-28T12:39:19.036Z,13.03
2022-09-28T12:41:41.960Z,13.06
2022-09-28T12:44:03.929Z,13.20
2022-09-28T12:46:49.507Z,13.32
2022-09-28T12:50:07.274Z,13.36
2022-09-28T12:51:48.430Z,13.36
2022-09-28T12:54:07.492Z,13.37
2022-09-28T12:56:21.533Z,12.96
2022-09-28T12:58:51.060Z,13.48
2022-09-28T13:01:04.042Z,13.41
2022-09-28T13:03:37.401Z,13.43
2022-09-28T13:06:07.943Z,13.30
2022-09-28T13:08:22.506Z,13.50
2022-09-28T13:10:32.611Z,13.64
2022-09-28T13:12:50.024Z,13.79
2022-09-28T13:15:29.673Z,13.59
2022-09-28T13:17:46.257Z,13.58
2022-09-28T13:19:58.637Z,13.54
2022-09-28T13:22:14.381Z,13.52
2022-09-28T13:24:33.885Z,13.48
2022-09-28T13:26:41.511Z,13.30
2022-09-28T13:28:47.188Z,13.19
2022-09-28T13:30:52.470Z,13.12
2022-09-28T13:32:58.506Z,13.03
2022-09-28T13:35:02.509Z,12.94
2022-09-28T13:37:11.930Z,12.87
2022-09-28T13:39:56.393Z,12.95
2022-09-28T13:42:00.177Z,13.10
2022-09-28T13:44:29.175Z,13.89
2022-09-28T13:46:43.163Z,14.84
2022-09-28T13:48:56.064Z,15.29
2022-09-28T13:51:15.979Z,15.34
2022-09-28T13:53:30.968Z,14.94
2022-09-28T13:55:41.510Z,14.65
2022-09-28T13:57:48.618Z,14.64
2022-09-28T14:00:03.970Z,14.52
2022-09-28T14:02:29.807Z,15.07
2022-09-28T14:04:55.636Z,15.39
2022-09-28T14:07:11.756Z,15.76
2022-09-28T14:09:27.860Z,16.18
2022-09-28T14:11:56.739Z,16.49
2022-09-28T14:14:05.990Z,16.54
2022-09-28T14:16:22.957Z,17.33
2022-09-28T14:18:31.287Z,16.89
2022-09-28T14:20:37.875Z,17.00
2022-09-28T14:23:00.887Z,16.20
2022-09-28T14:25:11.740Z,15.92
2022-09-28T14:27:41.695Z,15.50
2022-09-28T14:29:45.605Z,15.14
2022-09-28T14:31:48.942Z,15.10
2022-09-28T14:33:58.579Z,15.00
2022-09-28T14:36:04.886Z,14.69
2022-09-28T14:38:33.233Z,14.35
2022-09-28T14:41:12.588Z,14.32
2022-09-28T14:43:35.684Z,14.03
2022-09-28T14:45:42.364Z,13.93
2022-09-28T14:48:15.674Z,13.88
2022-09-28T14:50:24.097Z,13.64
2022-09-28T14:52:43.905Z,13.77
2022-09-28T14:54:55.286Z,13.81
2022-09-28T14:57:16.592Z,13.77
2022-09-28T14:59:24.773Z,13.79
2022-09-28T15:01:30.191Z,13.61
2022-09-28T15:03:35.640Z,13.13
2022-09-28T15:05:44.015Z,13.31
2022-09-28T15:07:50.685Z,12.97
2022-09-28T15:09:55.970Z,12.96
2022-09-28T15:12:04.074Z,12.86
2022-09-28T15:14:10.551Z,12.96
2022-09-28T15:16:18.099Z,13.08
2022-09-28T15:18:55.802Z,13.16
2022-09-28T15:20:59.908Z,13.24
2022-09-28T15:23:03.296Z,13.76
2022-09-28T15:25:15.299Z,13.83
2022-09-28T15:27:19.159Z,13.63
2022-09-28T15:29:23.904Z,13.72
2022-09-28T15:31:35.745Z,13.34
2022-09-28T15:33:59.747Z,13.38
2022-09-28T15:36:08.730Z,13.38
2022-09-28T15:38:17.057Z,13.10
2022-09-28T15:40:27.113Z,13.19
2022-09-28T15:42:37.228Z,13.27
2022-09-28T15:44:44.510Z,13.27
2022-09-28T15:47:06.800Z,13.37
2022-09-28T15:49:25.603Z,13.22
2022-09-28T15:51:33.095Z,13.30
2022-09-28T15:53:36.843Z,13.14
2022-09-28T15:55:45.497Z,13.16
2022-09-28T15:57:49.868Z,13.08
2022-09-28T15:59:57.019Z,12.92
2022-09-28T16:02:12.806Z,13.01
2022-09-28T16:04:39.328Z,12.95
2022-09-28T16:06:42.743Z,12.86
2022-09-28T16:08:48.826Z,12.84
2022-09-28T16:11:00.434Z,12.82
2022-09-28T16:13:16.035Z,12.81
2022-09-28T16:15:22.261Z,12.83
2022-09-28T16:17:32.347Z,12.81
2022-09-28T16:19:39.282Z,12.88
2022-09-28T16:21:47.779Z,12.76
2022-09-28T16:23:55.622Z,12.59
2022-09-28T16:26:01.979Z,12.60
2022-09-28T16:28:06.689Z,12.56
2022-09-28T16:30:21.676Z,12.37
2022-09-28T16:32:38.243Z,12.49
2022-09-28T16:34:44.176Z,12.41
2022-09-28T16:36:49.198Z,12.42
2022-09-28T16:38:54.796Z,12.41
2022-09-28T16:41:01.985Z,12.42
2022-09-28T16:43:10.322Z,12.39
2022-09-28T16:45:20.326Z,12.37
2022-09-28T16:47:23.904Z,12.34
2022-09-28T16:49:29.710Z,12.38
2022-09-28T16:51:33.626Z,12.34
2022-09-28T16:53:55.883Z,12.32
2022-09-28T16:56:00.771Z,12.22
2022-09-28T16:58:04.908Z,12.21
2022-09-28T17:00:15.348Z,12.21
2022-09-28T17:02:45.346Z,12.11
2022-09-28T17:04:47.690Z,12.20
2022-09-28T17:06:53.505Z,12.21
2022-09-28T17:08:59.104Z,12.26
2022-09-28T17:11:15.948Z,12.24
2022-09-28T17:13:33.213Z,12.21
2022-09-28T17:15:36.605Z,12.20
2022-09-28T17:17:41.104Z,12.15
2022-09-28T17:19:45.842Z,12.12
2022-09-28T17:21:49.586Z,12.10
2022-09-28T17:23:52.868Z,12.13
2022-09-28T17:25:56.689Z,12.09
2022-09-28T17:28:00.633Z,12.02
2022-09-28T17:30:06.713Z,12.01
2022-09-28T17:32:14.891Z,12.06
2022-09-28T17:34:19.493Z,12.13
2022-09-28T17:36:25.890Z,12.16
2022-09-28T17:38:29.439Z,12.14
2022-09-28T17:40:32.859Z,12.15
2022-09-28T17:42:36.238Z,12.17
2022-09-28T17:44:39.610Z,12.14
2022-09-28T17:46:47.425Z,12.05
2022-09-28T17:48:51.046Z,11.92
2022-09-28T17:50:54.360Z,11.76
2022-09-28T17:53:02.730Z,11.64
2022-09-28T17:55:09.200Z,11.48
2022-09-28T17:57:12.698Z,11.36
2022-09-28T17:59:18.829Z,11.29
2022-09-28T18:01:22.205Z,11.14
2022-09-28T18:03:27.577Z,11.04
2022-09-28T18:05:31.577Z,10.97
2022-09-28T18:07:35.179Z,10.99
2022-09-28T18:09:41.832Z,10.99
2022-09-28T18:11:46.399Z,10.93
2022-09-28T18:13:49.765Z,10.94
2022-09-28T18:15:53.667Z,10.93
2022-09-28T18:17:57.093Z,10.88
2022-09-28T18:20:03.741Z,10.83
2022-09-28T18:22:07.167Z,10.76
2022-09-28T18:24:10.462Z,10.74
2022-09-28T18:26:16.705Z,10.77
2022-09-28T18:28:21.532Z,10.77
2022-09-28T18:30:25.051Z,10.70
2022-09-28T18:32:28.555Z,10.67
2022-09-28T18:34:32.002Z,10.53
2022-09-28T18:36:36.030Z,10.49
2022-09-28T18:38:39.883Z,10.47
2022-09-28T18:40:43.261Z,10.42
2022-09-28T18:42:49.998Z,10.38
2022-09-28T18:44:53.310Z,10.41
2022-09-28T18:46:56.670Z,10.38
2022-09-28T18:49:00.075Z,10.38
2022-09-28T18:51:03.505Z,10.41
2022-09-28T18:53:12.902Z,10.44
2022-09-28T18:55:16.402Z,10.40
2022-09-28T18:57:19.775Z,10.28
2022-09-28T18:59:24.710Z,10.31
2022-09-28T19:01:30.732Z,10.44
2022-09-28T19:03:34.798Z,10.50
2022-09-28T19:05:42.581Z,10.59
2022-09-28T19:07:45.893Z,10.60
2022-09-28T19:09:49.543Z,10.61
2022-09-28T19:11:55.549Z,10.59
2022-09-28T19:13:58.869Z,10.62
2022-09-28T19:16:08.816Z,10.62
2022-09-28T19:18:12.301Z,11.01
2022-09-28T19:20:15.870Z,11.71
2022-09-28T19:22:19.277Z,12.15
2022-09-28T19:24:22.920Z,12.43
2022-09-28T19:26:28.062Z,12.67
2022-09-28T19:28:31.746Z,12.88
2022-09-28T19:30:35.502Z,12.53
2022-09-28T19:32:41.627Z,12.14
2022-09-28T19:34:45.109Z,11.89
2022-09-28T19:36:48.458Z,11.71
2022-09-28T19:38:53.208Z,11.17
2022-09-28T19:40:57.170Z,11.46
2022-09-28T19:43:00.613Z,11.41
2022-09-28T19:45:05.159Z,11.40
2022-09-28T19:47:11.548Z,11.37
2022-09-28T19:49:19.561Z,11.36
2022-09-28T19:51:24.778Z,11.28
2022-09-28T19:53:29.716Z,11.21
2022-09-28T19:55:36.190Z,11.14
2022-09-28T19:57:39.608Z,11.15
2022-09-28T19:59:42.973Z,11.12
2022-09-28T20:01:46.515Z,11.04
2022-09-28T20:03:49.975Z,10.89
2022-09-28T20:05:59.571Z,10.68
2022-09-28T20:10:07.271Z,10.55
2022-09-28T20:12:11.140Z,10.55
2022-09-28T20:14:16.135Z,10.49
2022-09-28T20:16:24.354Z,10.49
2022-09-28T20:18:27.675Z,10.50
2022-09-28T20:20:31.048Z,10.57
2022-09-28T20:22:36.987Z,10.60
2022-09-28T20:24:40.317Z,10.61
2022-09-28T20:26:44.360Z,10.62
2022-09-28T20:28:47.837Z,10.56
2022-09-28T20:30:51.271Z,10.62
2022-09-28T20:32:54.627Z,10.58
2022-09-28T20:34:57.924Z,10.50
2022-09-28T20:37:01.355Z,10.50
2022-09-28T20:39:06.046Z,10.51
2022-09-28T20:41:10.355Z,10.49
2022-09-28T20:43:15.127Z,10.57
2022-09-28T20:45:19.590Z,10.56
2022-09-28T20:47:23.026Z,10.54
2022-09-28T20:49:27.946Z,10.53
2022-09-28T20:51:31.480Z,10.52
2022-09-28T20:53:34.795Z,10.49
2022-09-28T20:55:39.430Z,10.48
2022-09-28T20:57:42.752Z,10.52
2022-09-28T20:59:48.772Z,10.57
2022-09-28T21:01:55.576Z,10.56
2022-09-28T21:04:00.911Z,10.58
2022-09-28T21:06:11.520Z,10.60
2022-09-28T21:08:15.738Z,10.60
2022-09-28T21:10:19.056Z,10.51
2022-09-28T21:12:26.092Z,10.49
2022-09-28T21:14:29.459Z,10.53
2022-09-28T21:16:34.642Z,10.56
2022-09-28T21:18:38.125Z,10.52
2022-09-28T21:20:45.553Z,10.51
2022-09-28T21:22:48.847Z,10.50
2022-09-28T21:24:52.193Z,10.55
2022-09-28T21:26:55.986Z,10.56
2022-09-28T21:29:02.221Z,10.54
2022-09-28T21:31:08.590Z,10.61
2022-09-28T21:33:12.322Z,10.60
2022-09-28T21:35:15.971Z,10.59
2022-09-28T21:37:19.242Z,10.59
2022-09-28T21:39:22.559Z,10.58
2022-09-28T21:41:26.640Z,10.57
2022-09-28T21:43:31.503Z,10.54
2022-09-28T21:45:36.238Z,10.57
2022-09-28T21:47:43.484Z,10.58
2022-09-28T21:49:46.786Z,10.59
2022-09-28T21:51:50.318Z,10.62
2022-09-28T21:53:54.096Z,10.65
2022-09-28T21:55:59.433Z,10.59
2022-09-28T21:58:02.846Z,10.55
2022-09-28T22:00:07.153Z,10.58
2022-09-28T22:02:12.208Z,10.46
2022-09-28T22:04:15.745Z,10.29
2022-09-28T22:06:21.551Z,10.16
2022-09-28T22:08:25.714Z,10.04
2022-09-28T22:10:29.075Z,10.06
2022-09-28T22:12:35.629Z,10.05
2022-09-28T22:14:38.908Z,10.07
2022-09-28T22:16:42.248Z,10.02
2022-09-28T22:18:46.973Z,9.91
2022-09-28T22:20:50.470Z,9.82
2022-09-28T22:22:53.858Z,9.73
2022-09-28T22:24:57.122Z,9.72
2022-09-28T22:27:01.133Z,9.70
2022-09-28T22:29:06.794Z,9.67
2022-09-28T22:31:10.157Z,9.65
2022-09-28T22:33:13.439Z,9.58
2022-09-28T22:35:18.182Z,9.50
2022-09-28T22:37:21.470Z,9.44
2022-09-28T22:39:24.821Z,9.45
2022-09-28T22:41:28.425Z,9.62
2022-09-28T22:43:32.081Z,9.80
2022-09-28T22:45:35.395Z,9.97
2022-09-28T22:47:38.993Z,10.05
2022-09-28T22:49:42.306Z,10.09
2022-09-28T22:51:46.959Z,10.16
2022-09-28T22:53:50.376Z,10.23
2022-09-28T22:55:53.777Z,10.28
2022-09-28T22:57:57.052Z,10.31
2022-09-28T23:00:00.371Z,10.28
2022-09-28T23:02:03.866Z,10.14
2022-09-28T23:04:07.421Z,10.11
2022-09-28T23:06:11.952Z,9.99
2022-09-28T23:08:16.628Z,10.24
2022-09-28T23:10:20.101Z,10.28
2022-09-28T23:12:23.522Z,10.25
2022-09-28T23:14:26.836Z,10.24
2022-09-28T23:16:30.351Z,10.25
2022-09-28T23:18:35.826Z,10.26
2022-09-28T23:20:39.679Z,10.31
2022-09-28T23:22:46.851Z,10.30
2022-09-28T23:24:51.556Z,10.24
2022-09-28T23:26:54.929Z,10.29
2022-09-28T23:28:58.925Z,10.31
2022-09-28T23:31:09.330Z,10.28
2022-09-28T23:33:13.737Z,10.19
2022-09-28T23:35:17.229Z,10.18
2022-09-28T23:37:20.660Z,10.19
2022-09-28T23:39:24.014Z,10.17
2022-09-28T23:41:28.669Z,10.04
2022-09-28T23:43:32.050Z,9.99
2022-09-28T23:45:35.406Z,9.92
2022-09-28T23:47:38.997Z,10.03
2022-09-28T23:49:42.248Z,10.14
2022-09-28T23:51:45.630Z,10.21
2022-09-28T23:53:48.987Z,10.23
2022-09-28T23:55:52.278Z,10.21
2022-09-28T23:57:58.127Z,10.27
